Boydell, Arkansas
Current Conditions -  °F | °C
As of 11:53 AM on Wednesday 28 Jan 2015 (Local Time) from KLLQ Reporting Station
Clear Clear  
Wind Chill: 15°   Ceiling: Unl
Heat Index: 15°   Visibility: 10mi
Dew Point:   Wind: 13mph
Humidity: 39%   Direction: 140°SE
Pressure: 30.24"   Gusts: NA
Location:  33.3267°N, 91.5515°W
Report Text: KLLQ 281753Z AUTO 14011KT 10SM CLR 15/01 A3024 RMK AO2 RAB02E11 SLP238 P0000 60000 T01500011 10150 20028 58010
Loading
Personal Weather Stations






























Interactive Weather Map New forecast layout! Learn more

10-Day Weather Forecast

Advertisements
Track Severe Weather on mobile